createdAt,value
2022-08-09T00:01:54.125Z,99186.31
2022-08-09T00:04:34.613Z,99175.22
2022-08-09T00:07:07.722Z,99172.31
2022-08-09T00:09:39.223Z,99179.88
2022-08-09T00:12:15.568Z,99182.31
2022-08-09T00:14:56.693Z,99185.34
2022-08-09T00:18:10.666Z,99181.00
2022-08-09T00:20:13.628Z,99177.38
2022-08-09T00:22:43.236Z,99174.63
2022-08-09T00:25:15.240Z,99182.84
2022-08-09T00:27:52.985Z,99182.31
2022-08-09T00:30:26.153Z,99180.63
2022-08-09T00:32:54.896Z,99172.63
2022-08-09T00:35:23.932Z,99165.63
2022-08-09T00:37:51.765Z,99169.81
2022-08-09T00:40:19.911Z,99169.88
2022-08-09T00:44:18.700Z,99174.53
2022-08-09T00:45:37.511Z,99168.53
2022-08-09T00:48:07.610Z,99165.13
2022-08-09T00:50:37.770Z,99172.69
2022-08-09T00:53:10.379Z,99176.63
2022-08-09T00:56:05.024Z,99170.75
2022-08-09T00:58:31.664Z,99176.22
2022-08-09T01:01:01.526Z,99178.53
2022-08-09T01:03:46.227Z,99175.78
2022-08-09T01:06:21.870Z,99176.00
2022-08-09T01:09:03.792Z,99173.25
2022-08-09T01:11:55.639Z,99185.00
2022-08-09T01:14:29.892Z,99180.94
2022-08-09T01:17:09.033Z,99188.63
2022-08-09T01:19:56.995Z,99187.31
2022-08-09T01:22:43.722Z,99181.03
2022-08-09T01:25:25.844Z,99177.69
2022-08-09T01:27:58.216Z,99182.50
2022-08-09T01:30:35.681Z,99188.94
2022-08-09T01:33:16.448Z,99199.47
2022-08-09T01:35:51.986Z,99199.09
2022-08-09T01:38:24.663Z,99203.47
2022-08-09T01:41:05.465Z,99194.34
2022-08-09T01:43:51.088Z,99190.16
2022-08-09T01:46:25.250Z,99201.41
2022-08-09T01:49:00.218Z,99201.63
2022-08-09T01:51:42.763Z,99194.13
2022-08-09T01:54:14.797Z,99198.72
2022-08-09T01:56:47.145Z,99202.50
2022-08-09T01:59:23.340Z,99205.63
2022-08-09T02:01:57.984Z,99205.06
2022-08-09T02:04:29.853Z,99215.53
2022-08-09T02:08:35.124Z,99210.38
2022-08-09T02:10:06.946Z,99211.28
2022-08-09T02:12:37.196Z,99219.28
2022-08-09T02:15:15.427Z,99216.84
2022-08-09T02:18:00.425Z,99225.22
2022-08-09T02:20:40.465Z,99220.59
2022-08-09T02:23:16.886Z,99224.56
2022-08-09T02:25:52.870Z,99215.16
2022-08-09T02:28:28.234Z,99227.41
2022-08-09T02:31:03.627Z,99219.16
2022-08-09T02:34:07.077Z,99223.56
2022-08-09T02:36:34.799Z,99221.00
2022-08-09T02:39:14.087Z,99222.41
2022-08-09T02:41:52.569Z,99216.34
2022-08-09T02:44:29.420Z,99214.53
2022-08-09T02:47:04.421Z,99219.88
2022-08-09T02:49:41.341Z,99217.47
2022-08-09T02:52:14.635Z,99216.81
2022-08-09T02:54:54.171Z,99221.50
2022-08-09T02:57:26.831Z,99217.53
2022-08-09T03:00:21.564Z,99219.06
2022-08-09T03:03:00.435Z,99220.38
2022-08-09T03:05:29.910Z,99213.94
2022-08-09T03:08:04.540Z,99215.31
2022-08-09T03:10:33.656Z,99215.59
2022-08-09T03:13:02.547Z,99208.38
2022-08-09T03:16:04.230Z,99213.88
2022-08-09T03:18:31.154Z,99214.34
2022-08-09T03:21:02.896Z,99218.25
2022-08-09T03:23:31.372Z,99216.41
2022-08-09T03:26:04.877Z,99219.25
2022-08-09T03:28:34.902Z,99217.56
2022-08-09T03:31:09.889Z,99219.25
2022-08-09T03:33:54.623Z,99220.94
2022-08-09T03:36:27.611Z,99219.41
2022-08-09T03:38:56.864Z,99229.19
2022-08-09T03:41:30.099Z,99220.03
2022-08-09T03:44:13.098Z,99232.19
2022-08-09T03:46:43.588Z,99226.28
2022-08-09T03:49:17.435Z,99228.25
2022-08-09T03:51:56.995Z,99237.25
2022-08-09T03:54:31.753Z,99230.09
2022-08-09T03:57:02.197Z,99234.44
2022-08-09T03:59:53.265Z,99226.44
2022-08-09T04:02:26.561Z,99227.69
2022-08-09T04:04:58.922Z,99228.81
2022-08-09T04:07:47.392Z,99237.53
2022-08-09T04:10:20.294Z,99236.38
2022-08-09T04:12:51.036Z,99234.13
2022-08-09T04:15:42.648Z,99247.66
2022-08-09T04:18:16.491Z,99238.34
2022-08-09T04:20:49.678Z,99245.81
2022-08-09T04:23:18.015Z,99249.19
2022-08-09T04:25:53.250Z,99248.78
2022-08-09T04:28:33.894Z,99252.41
2022-08-09T04:31:08.574Z,99257.78
2022-08-09T04:33:52.977Z,99255.25
2022-08-09T04:36:28.638Z,99257.78
2022-08-09T04:38:59.214Z,99259.03
2022-08-09T04:41:32.102Z,99266.78
2022-08-09T04:44:07.041Z,99266.34
2022-08-09T04:46:58.811Z,99274.75
2022-08-09T04:49:40.111Z,99278.44
2022-08-09T04:52:22.085Z,99280.53
2022-08-09T04:54:55.107Z,99284.78
2022-08-09T04:57:24.155Z,99282.94
2022-08-09T04:59:54.384Z,99294.31
2022-08-09T05:02:22.771Z,99295.84
2022-08-09T05:04:55.372Z,99298.94
2022-08-09T05:07:29.352Z,99302.97
2022-08-09T05:10:02.047Z,99294.00
2022-08-09T05:12:33.247Z,99295.16
2022-08-09T05:15:11.643Z,99299.63
2022-08-09T05:18:42.264Z,99294.88
2022-08-09T05:20:39.783Z,99296.16
2022-08-09T05:23:53.768Z,99297.25
2022-08-09T05:25:57.165Z,99298.72
2022-08-09T05:28:26.916Z,99310.09
2022-08-09T05:30:55.242Z,99306.25
2022-08-09T05:33:26.527Z,99315.53
2022-08-09T05:36:01.737Z,99320.16
2022-08-09T05:38:31.475Z,99313.38
2022-08-09T05:40:59.926Z,99320.34
2022-08-09T05:43:29.037Z,99321.50
2022-08-09T05:46:00.028Z,99306.56
2022-08-09T05:48:33.158Z,99306.16
2022-08-09T05:51:30.335Z,99312.22
2022-08-09T05:53:57.366Z,99319.03
2022-08-09T05:56:26.810Z,99315.06
2022-08-09T05:58:58.645Z,99321.56
2022-08-09T06:01:33.859Z,99322.00
2022-08-09T06:04:12.289Z,99329.19
2022-08-09T06:06:46.777Z,99334.53
2022-08-09T06:09:53.836Z,99334.63
2022-08-09T06:12:08.029Z,99339.78
2022-08-09T06:14:36.205Z,99343.78
2022-08-09T06:17:09.344Z,99350.00
2022-08-09T06:19:38.080Z,99346.31
2022-08-09T06:22:06.491Z,99342.59
2022-08-09T06:24:44.424Z,99348.72
2022-08-09T06:27:15.686Z,99343.91
2022-08-09T06:29:48.104Z,99344.06
2022-08-09T06:32:58.853Z,99342.66
2022-08-09T06:35:15.077Z,99340.47
2022-08-09T06:37:52.899Z,99340.91
2022-08-09T06:40:33.402Z,99341.91
2022-08-09T06:43:02.215Z,99346.34
2022-08-09T06:46:07.696Z,99342.84
2022-08-09T06:48:30.106Z,99350.53
2022-08-09T06:50:59.963Z,99347.81
2022-08-09T06:53:38.600Z,99349.59
2022-08-09T06:56:09.296Z,99353.34
2022-08-09T07:00:47.466Z,99342.78
2022-08-09T07:01:27.698Z,99346.16
2022-08-09T07:04:04.407Z,99344.78
2022-08-09T07:06:32.810Z,99353.94
2022-08-09T07:09:02.726Z,99350.91
2022-08-09T07:11:34.176Z,99351.25
2022-08-09T07:14:17.917Z,99354.88
2022-08-09T07:16:58.010Z,99360.00
2022-08-09T07:19:26.584Z,99359.94
2022-08-09T07:21:57.148Z,99365.69
2022-08-09T07:24:32.172Z,99360.19
2022-08-09T07:27:26.297Z,99361.16
2022-08-09T07:30:00.733Z,99368.84
2022-08-09T07:32:33.257Z,99364.94
2022-08-09T07:35:08.035Z,99363.25
2022-08-09T07:37:43.783Z,99373.97
2022-08-09T07:40:17.166Z,99373.34
2022-08-09T07:42:54.590Z,99369.69
2022-08-09T07:45:37.559Z,99366.41
2022-08-09T07:48:07.832Z,99371.66
2022-08-09T07:51:10.013Z,99369.16
2022-08-09T07:54:05.398Z,99361.91
2022-08-09T07:56:31.056Z,99368.00
2022-08-09T07:59:00.595Z,99369.97
2022-08-09T08:01:30.497Z,99369.16
2022-08-09T08:04:02.760Z,99361.72
2022-08-09T08:06:32.081Z,99357.59
2022-08-09T08:09:07.547Z,99368.97
2022-08-09T08:12:11.089Z,99371.19
2022-08-09T08:14:35.250Z,99372.78
2022-08-09T08:17:08.799Z,99368.06
2022-08-09T08:19:40.074Z,99366.34
2022-08-09T08:22:08.312Z,99361.03
2022-08-09T08:24:40.647Z,99369.06
2022-08-09T08:27:16.517Z,99366.97
2022-08-09T08:29:49.959Z,99366.09
2022-08-09T08:32:29.230Z,99363.81
2022-08-09T08:34:58.809Z,99365.91
2022-08-09T08:37:41.689Z,99358.44
2022-08-09T08:40:15.880Z,99357.47
2022-08-09T08:42:47.247Z,99359.16
2022-08-09T08:45:18.876Z,99366.31
2022-08-09T08:48:06.929Z,99359.97
2022-08-09T08:50:38.616Z,99355.09
2022-08-09T08:53:11.893Z,99357.88
2022-08-09T08:55:44.559Z,99351.13
2022-08-09T08:58:12.651Z,99359.09
2022-08-09T09:00:42.810Z,99361.53
2022-08-09T09:03:22.947Z,99363.53
2022-08-09T09:06:04.491Z,99361.28
2022-08-09T09:08:38.061Z,99357.25
2022-08-09T09:11:08.523Z,99356.38
2022-08-09T09:13:50.232Z,99357.41
2022-08-09T09:16:30.261Z,99352.16
2022-08-09T09:19:39.380Z,99340.59
2022-08-09T09:22:03.966Z,99342.72
2022-08-09T09:24:34.981Z,99337.25
2022-08-09T09:27:07.732Z,99336.91
2022-08-09T09:30:12.289Z,99337.84
2022-08-09T09:32:35.346Z,99338.47
2022-08-09T09:35:07.561Z,99342.09
2022-08-09T09:37:40.514Z,99341.34
2022-08-09T09:40:11.852Z,99341.78
2022-08-09T09:42:47.180Z,99338.47
2022-08-09T09:45:26.778Z,99336.63
2022-08-09T09:48:04.257Z,99336.50
2022-08-09T09:50:51.004Z,99329.84
2022-08-09T09:53:25.102Z,99321.88
2022-08-09T09:56:19.800Z,99334.59
2022-08-09T09:58:58.522Z,99314.56
2022-08-09T10:01:36.866Z,99320.91
2022-08-09T10:04:15.940Z,99320.09
2022-08-09T10:06:53.881Z,99319.84
2022-08-09T10:09:24.021Z,99314.88
2022-08-09T10:12:14.865Z,99329.03
2022-08-09T10:14:48.652Z,99318.41
2022-08-09T10:17:39.318Z,99319.59
2022-08-09T10:20:32.277Z,99316.63
2022-08-09T10:23:17.321Z,99310.13
2022-08-09T10:26:06.267Z,99301.25
2022-08-09T10:28:36.142Z,99310.75
2022-08-09T10:34:08.148Z,99301.75
2022-08-09T10:36:42.188Z,99307.63
2022-08-09T10:39:16.214Z,99310.50
2022-08-09T10:41:48.275Z,99308.41
2022-08-09T10:44:19.301Z,99310.59
2022-08-09T10:47:41.653Z,99301.13
2022-08-09T10:50:27.131Z,99290.25
2022-08-09T10:53:12.769Z,99295.47
2022-08-09T10:55:58.715Z,99281.44
2022-08-09T10:58:33.809Z,99285.75
2022-08-09T11:03:07.387Z,99294.38
2022-08-09T11:04:28.068Z,99303.66
2022-08-09T11:07:57.495Z,99302.22
2022-08-09T11:10:56.148Z,99289.16
2022-08-09T11:13:50.271Z,99290.84
2022-08-09T11:16:39.128Z,99298.81
2022-08-09T11:19:10.695Z,99287.59
2022-08-09T11:22:16.872Z,99285.03
2022-08-09T11:25:11.041Z,99289.78
2022-08-09T11:28:03.918Z,99282.06
2022-08-09T11:30:36.500Z,99281.72
2022-08-09T11:33:09.644Z,99280.34
2022-08-09T11:35:49.299Z,99276.25
2022-08-09T11:38:22.340Z,99279.31
2022-08-09T11:40:57.191Z,99281.53
2022-08-09T11:43:42.906Z,99273.31
2022-08-09T11:46:11.080Z,99272.06
2022-08-09T11:48:48.319Z,99269.78
2022-08-09T11:53:04.402Z,99263.22
2022-08-09T11:54:21.634Z,99263.25
2022-08-09T11:57:55.529Z,99252.53
2022-08-09T12:00:27.166Z,99258.28
2022-08-09T12:02:56.155Z,99255.88
2022-08-09T12:05:37.660Z,99250.75
2022-08-09T12:08:12.473Z,99256.66
2022-08-09T12:10:53.041Z,99244.44
2022-08-09T12:14:07.941Z,99248.03
2022-08-09T12:16:30.481Z,99244.81
2022-08-09T12:19:09.579Z,99255.03
2022-08-09T12:21:48.365Z,99235.22
2022-08-09T12:24:22.388Z,99236.38
2022-08-09T12:29:12.578Z,99255.19
2022-08-09T12:30:01.595Z,99255.72
2022-08-09T12:32:44.185Z,99247.75
2022-08-09T12:35:19.395Z,99232.47
2022-08-09T12:37:52.208Z,99247.84
2022-08-09T12:40:26.761Z,99245.13
2022-08-09T12:42:55.907Z,99235.75
2022-08-09T12:45:32.560Z,99228.59
2022-08-09T12:48:06.182Z,99221.59
2022-08-09T12:50:39.889Z,99228.94
2022-08-09T12:53:36.720Z,99227.47
2022-08-09T12:56:37.051Z,99228.47
2022-08-09T12:59:08.923Z,99224.56
2022-08-09T13:01:42.668Z,99219.88
2022-08-09T13:04:35.771Z,99201.69
2022-08-09T13:07:14.055Z,99216.16
2022-08-09T13:09:52.611Z,99217.47
2022-08-09T13:12:22.106Z,99216.25
2022-08-09T13:14:54.307Z,99212.03
2022-08-09T13:17:43.957Z,99205.22
2022-08-09T13:20:20.273Z,99204.69
2022-08-09T13:23:01.192Z,99220.66
2022-08-09T13:25:42.479Z,99206.28
2022-08-09T13:28:18.739Z,99195.44
2022-08-09T13:32:13.826Z,99201.94
2022-08-09T13:33:54.608Z,99193.06
2022-08-09T13:36:40.657Z,99187.22
2022-08-09T13:41:46.980Z,99187.59
2022-08-09T13:42:02.583Z,99190.75
2022-08-09T13:44:32.317Z,99190.53
2022-08-09T13:47:29.188Z,99185.13
2022-08-09T13:49:57.139Z,99182.25
2022-08-09T13:52:31.141Z,99188.06
2022-08-09T13:55:04.973Z,99193.41
2022-08-09T13:57:39.384Z,99191.69
2022-08-09T14:00:12.837Z,99187.78
2022-08-09T14:03:17.197Z,99187.66
2022-08-09T14:05:56.771Z,99174.41
2022-08-09T14:08:20.727Z,99177.53
2022-08-09T14:10:52.644Z,99178.88
2022-08-09T14:14:15.286Z,99181.25
2022-08-09T14:16:16.358Z,99182.44
2022-08-09T14:18:50.038Z,99174.09
2022-08-09T14:21:20.156Z,99175.75
2022-08-09T14:23:53.705Z,99173.28
2022-08-09T14:26:30.144Z,99170.09
2022-08-09T14:29:01.395Z,99174.28
2022-08-09T14:31:36.294Z,99172.56
2022-08-09T14:34:32.366Z,99153.19
2022-08-09T14:37:02.754Z,99165.66
2022-08-09T14:39:47.134Z,99160.28
2022-08-09T14:42:40.720Z,99172.16
2022-08-09T14:46:51.422Z,99171.78
2022-08-09T14:47:58.213Z,99174.63
2022-08-09T14:50:29.177Z,99160.75
2022-08-09T14:52:57.642Z,99164.97
2022-08-09T14:55:29.233Z,99155.53
2022-08-09T14:58:03.019Z,99165.16
2022-08-09T15:00:32.189Z,99165.69
2022-08-09T15:03:02.014Z,99148.53
2022-08-09T15:05:32.881Z,99152.69
2022-08-09T15:08:01.450Z,99150.66
2022-08-09T15:10:32.553Z,99149.84
2022-08-09T15:13:03.106Z,99143.22
2022-08-09T15:15:34.399Z,99145.63
2022-08-09T15:18:07.621Z,99151.41
2022-08-09T15:21:54.922Z,99151.75
2022-08-09T15:24:05.612Z,99151.78
2022-08-09T15:26:19.266Z,99149.28
2022-08-09T15:29:04.464Z,99145.47
2022-08-09T15:31:40.787Z,99140.59
2022-08-09T15:34:31.977Z,99141.09
2022-08-09T15:36:59.252Z,99133.47
2022-08-09T15:39:43.978Z,99144.56
2022-08-09T15:42:18.815Z,99126.47
2022-08-09T15:44:47.286Z,99132.22
2022-08-09T15:47:22.758Z,99128.53
2022-08-09T15:50:03.769Z,99129.16
2022-08-09T15:52:35.882Z,99125.75
2022-08-09T15:55:05.383Z,99126.19
2022-08-09T15:57:44.323Z,99136.97
2022-08-09T16:00:25.111Z,99132.94
2022-08-09T16:02:56.100Z,99136.88
2022-08-09T16:05:47.806Z,99135.47
2022-08-09T16:08:30.695Z,99136.78
2022-08-09T16:11:01.986Z,99136.34
2022-08-09T16:14:04.641Z,99135.88
2022-08-09T16:16:28.236Z,99126.38
2022-08-09T16:18:56.684Z,99130.16
2022-08-09T16:21:25.720Z,99135.94
2022-08-09T16:23:54.846Z,99127.75
2022-08-09T16:26:35.297Z,99127.94
2022-08-09T16:29:11.447Z,99130.31
2022-08-09T16:32:18.805Z,99131.53
2022-08-09T16:34:54.754Z,99125.34
2022-08-09T16:37:50.609Z,99119.06
2022-08-09T16:40:10.236Z,99124.44
2022-08-09T16:42:44.849Z,99127.56
2022-08-09T16:45:17.588Z,99127.19
2022-08-09T16:48:39.217Z,99119.09
2022-08-09T16:50:34.680Z,99124.53
2022-08-09T16:53:03.407Z,99129.00
2022-08-09T16:55:58.677Z,99129.00
2022-08-09T16:58:21.963Z,99124.00
2022-08-09T17:00:51.635Z,99119.78
2022-08-09T17:03:21.408Z,99127.81
2022-08-09T17:06:08.548Z,99128.53
2022-08-09T17:08:58.113Z,99131.94
2022-08-09T17:11:40.273Z,99133.66
2022-08-09T17:14:26.097Z,99128.66
2022-08-09T17:16:59.363Z,99135.44
2022-08-09T17:19:47.185Z,99138.38
2022-08-09T17:22:16.617Z,99140.06
2022-08-09T17:24:54.989Z,99131.25
2022-08-09T17:27:23.748Z,99129.50
2022-08-09T17:29:52.309Z,99136.81
2022-08-09T17:32:35.045Z,99134.28
2022-08-09T17:35:12.170Z,99141.81
2022-08-09T17:38:12.603Z,99142.25
2022-08-09T17:40:30.036Z,99142.72
2022-08-09T17:42:59.832Z,99140.44
2022-08-09T17:46:05.735Z,99148.25
2022-08-09T17:48:29.416Z,99139.63
2022-08-09T17:51:09.008Z,99150.25
2022-08-09T17:53:52.391Z,99152.00
2022-08-09T17:56:27.123Z,99148.22
2022-08-09T17:58:57.289Z,99152.81
2022-08-09T18:01:25.501Z,99159.09
2022-08-09T18:04:15.007Z,99159.31
2022-08-09T18:06:54.190Z,99168.06
2022-08-09T18:09:25.243Z,99162.81
2022-08-09T18:12:15.157Z,99158.06
2022-08-09T18:14:54.969Z,99161.19
2022-08-09T18:17:27.382Z,99161.97
2022-08-09T18:20:57.012Z,99157.03
2022-08-09T18:23:07.096Z,99164.25
2022-08-09T18:25:52.781Z,99157.75
2022-08-09T18:30:38.038Z,99163.78
2022-08-09T18:31:15.511Z,99171.06
2022-08-09T18:33:54.093Z,99160.59
2022-08-09T18:36:32.058Z,99168.53
2022-08-09T18:39:03.300Z,99177.41
2022-08-09T18:41:34.255Z,99181.28
2022-08-09T18:44:12.784Z,99179.25
2022-08-09T18:46:50.786Z,99180.34
2022-08-09T18:49:32.329Z,99193.41
2022-08-09T18:52:12.610Z,99191.16
2022-08-09T18:54:52.723Z,99190.41
2022-08-09T18:57:23.103Z,99199.69
2022-08-09T18:59:55.526Z,99204.84
2022-08-09T19:02:32.870Z,99202.66
2022-08-09T19:05:03.376Z,99206.78
2022-08-09T19:07:34.108Z,99213.88
2022-08-09T19:10:16.586Z,99213.19
2022-08-09T19:12:55.535Z,99218.44
2022-08-09T19:15:35.245Z,99217.34
2022-08-09T19:18:05.535Z,99214.75
2022-08-09T19:20:39.147Z,99223.25
2022-08-09T19:23:16.901Z,99222.69
2022-08-09T19:26:04.543Z,99225.09
2022-08-09T19:28:33.966Z,99223.41
2022-08-09T19:31:07.695Z,99230.94
2022-08-09T19:33:36.816Z,99219.59
2022-08-09T19:36:07.159Z,99229.47
2022-08-09T19:38:41.757Z,99235.78
2022-08-09T19:41:11.167Z,99241.56
2022-08-09T19:44:02.506Z,99235.31
2022-08-09T19:46:34.866Z,99234.25
2022-08-09T19:50:07.640Z,99240.00
2022-08-09T19:51:56.069Z,99240.47
2022-08-09T19:54:27.132Z,99242.41
2022-08-09T19:56:55.979Z,99249.75
2022-08-09T19:59:59.763Z,99241.38
2022-08-09T20:02:14.961Z,99247.25
2022-08-09T20:05:10.341Z,99243.06
2022-08-09T20:07:58.587Z,99242.41
2022-08-09T20:10:36.485Z,99252.56
2022-08-09T20:13:05.765Z,99249.00
2022-08-09T20:16:34.153Z,99250.13
2022-08-09T20:18:27.994Z,99246.31
2022-08-09T20:20:56.699Z,99247.50
2022-08-09T20:23:39.984Z,99248.44
2022-08-09T20:26:12.986Z,99245.91
2022-08-09T20:28:48.178Z,99244.44
2022-08-09T20:31:17.704Z,99243.25
2022-08-09T20:33:46.639Z,99249.00
2022-08-09T20:36:20.850Z,99244.94
2022-08-09T20:41:38.568Z,99239.63
2022-08-09T20:44:09.941Z,99245.88
2022-08-09T20:46:43.324Z,99238.16
2022-08-09T20:49:14.098Z,99240.38
2022-08-09T20:51:50.370Z,99256.44
2022-08-09T20:54:19.100Z,99259.91
2022-08-09T20:56:53.665Z,99250.88
2022-08-09T20:59:50.096Z,99260.16
2022-08-09T21:02:11.984Z,99255.59
2022-08-09T21:05:52.735Z,99267.03
2022-08-09T21:07:40.293Z,99263.50
2022-08-09T21:10:11.994Z,99267.16
2022-08-09T21:15:34.734Z,99269.03
2022-08-09T21:18:11.875Z,99271.72
2022-08-09T21:20:54.576Z,99268.53
2022-08-09T21:23:26.342Z,99266.38
2022-08-09T21:26:12.993Z,99269.19
2022-08-09T21:28:55.844Z,99275.06
2022-08-09T21:31:49.043Z,99274.31
2022-08-09T21:34:15.474Z,99271.78
2022-08-09T21:36:56.752Z,99271.66
2022-08-09T21:39:28.097Z,99270.69
2022-08-09T21:42:04.302Z,99276.56
2022-08-09T21:44:37.168Z,99273.94
2022-08-09T21:47:08.574Z,99280.31
2022-08-09T21:49:39.197Z,99273.22
2022-08-09T21:52:16.499Z,99273.00
2022-08-09T21:54:49.359Z,99271.94
2022-08-09T21:57:37.693Z,99274.22
2022-08-09T22:00:12.770Z,99277.19
2022-08-09T22:02:43.103Z,99271.78
2022-08-09T22:05:22.769Z,99279.91
2022-08-09T22:07:53.056Z,99277.50
2022-08-09T22:10:22.857Z,99285.63
2022-08-09T22:12:53.134Z,99287.31
2022-08-09T22:15:33.264Z,99274.81
2022-08-09T22:18:04.167Z,99280.81
2022-08-09T22:20:36.595Z,99285.69
2022-08-09T22:23:10.630Z,99274.72
2022-08-09T22:26:05.616Z,99279.16
2022-08-09T22:28:32.884Z,99285.09
2022-08-09T22:31:03.004Z,99286.22
2022-08-09T22:33:42.651Z,99288.63
2022-08-09T22:36:19.086Z,99274.56
2022-08-09T22:38:48.038Z,99274.53
2022-08-09T22:41:16.514Z,99280.25
2022-08-09T22:44:03.697Z,99280.59
2022-08-09T22:48:16.014Z,99283.25
2022-08-09T22:49:22.710Z,99281.66
2022-08-09T22:51:56.668Z,99286.66
2022-08-09T22:54:27.152Z,99289.88
2022-08-09T22:56:58.531Z,99295.06
2022-08-09T22:59:56.276Z,99291.22
2022-08-09T23:02:20.144Z,99292.03
2022-08-09T23:04:54.296Z,99294.38
2022-08-09T23:08:27.835Z,99298.13
2022-08-09T23:10:30.901Z,99291.41
2022-08-09T23:12:59.133Z,99287.66
2022-08-09T23:15:27.993Z,99298.63
2022-08-09T23:17:58.092Z,99294.69
2022-08-09T23:20:28.689Z,99287.34
2022-08-09T23:22:57.288Z,99283.94
2022-08-09T23:25:25.478Z,99279.53
2022-08-09T23:28:14.131Z,99278.41
2022-08-09T23:30:51.239Z,99271.22
2022-08-09T23:33:21.622Z,99278.94
2022-08-09T23:36:06.255Z,99271.53
2022-08-09T23:38:36.039Z,99272.91
2022-08-09T23:41:28.069Z,99279.78
2022-08-09T23:43:59.017Z,99274.47
2022-08-09T23:46:27.480Z,99271.50
2022-08-09T23:48:57.018Z,99276.88
2022-08-09T23:51:25.608Z,99278.13
2022-08-09T23:53:55.375Z,99277.81
2022-08-09T23:56:40.005Z,99280.00
2022-08-09T23:59:20.858Z,99281.34
